Tiempo atmosférico en la estación meteorológica de Écija, Sevilla (130 m.)



Fecha
DESCASC
Temp. máxima en grados centígrados (hora)
DESCASC
Temp. mínima en grados centígrados (hora)
DESCASC
Temp. media en grados centígrados
DESCASC
Racha de viento máxima en m/sg (hora)
DESCASC
Velocidad máxima media en intervalos de 10 minutos(hora)
DESCASC
Precipitaciones diarias en mm
DESCASC
Precipitaciones de 00:00 a 06:00 en mm
DESCASC
Precipitaciones de 06:00 a 12:00 en mm
DESCASC
Precipitaciones de 12:00 a 18:00 en mm
DESCASC
Precipitaciones de 18:00 a 24:00 en mm
DESCASC
20-09-2018 34 (16:40) 20.5 (08:10) 27.3 8.33 (15:50) 4.17 (15:50) 0 0 0 0 0
19-09-2018 34.6 (17:50) 19 (07:30) 26.8 6.11 (15:40) 4.17 (00:40) 0 0 0 0 0
18-09-2018 33.5 (17:10) 19.6 (06:40) 26.6 7.78 (19:50) 4.17 (19:50) 0 0 0 0 0
17-09-2018 -- (--) -- (--) -- -- (--) -- (--) -- -- -- 0 0
16-09-2018 -- (--) -- (--) -- -- (--) -- (--) -- 0 0 0 --
15-09-2018 31.1 (16:30) 16.4 (00:00) 23.8 12.78 (17:50) 6.94 (17:10) 9 0 0 2.4 6.6
14-09-2018 31.7 (17:10) 19.4 (00:00) 25.6 13.61 (20:30) 8.33 (18:40) 0.2 0 0 0 0.2
13-09-2018 34.1 (17:30) 19.7 (00:00) 26.9 11.94 (19:00) 8.06 (19:00) 0 0 0 0 0
12-09-2018 33.7 (17:50) 20.4 (00:00) 27.1 9.72 (22:30) 6.11 (22:00) 0 0 0 0 0
11-09-2018 32.7 (17:30) 19.9 (00:00) 26.3 8.89 (20:00) 6.11 (20:10) 0 0 0 0 0
10-09-2018 32.4 (17:10) 15.6 (00:00) 24 9.44 (15:40) 5.83 (11:30) 0 0 0 0 0
09-09-2018 31 (17:20) 17.1 (00:00) 24.1 8.89 (18:30) 6.67 (18:30) 0.1 0 0 0.1 0
08-09-2018 23 (15:20) 17.3 (00:00) 20.1 8.89 (00:30) 6.11 (00:20) 3.6 0 0.9 2.7 0
07-09-2018 32 (16:50) 19.2 (00:00) 25.6 8.89 (22:50) 6.11 (22:50) 0 0 0 0 0
06-09-2018 31.5 (17:40) 16.6 (00:00) 24.1 9.72 (20:40) 6.39 (20:40) 0 0 0 0 0
05-09-2018 29.8 (17:00) 16.1 (00:00) 22.9 10 (17:00) 5.56 (18:40) 0 0 0 0 0
04-09-2018 29.8 (17:40) 17 (00:00) 23.4 11.67 (14:10) 5.56 (19:10) 0 0 0 0 0
03-09-2018 31.6 (16:30) 20.1 (00:00) 25.9 12.22 (18:50) 7.22 (18:40) 0 0 0 0 0
02-09-2018 38.7 (17:00) 22.3 (00:00) 30.5 7.78 (23:59) 5.56 (23:59) 0 0 0 0 0
01-09-2018 36.9 (15:10) 21.5 (00:00) 29.2 11.11 (17:10) 6.94 (19:00) 0 0 0 0 0
31-08-2018 37.3 (18:40) 21.2 (00:00) 29.3 9.17 (01:50) 6.39 (02:00) 0 0 0 0 0
30-08-2018 35.8 (16:10) 17.3 (00:00) 26.5 7.22 (17:30) 4.72 (23:40) 0 0 0 0 0
29-08-2018 34.3 (18:50) 19.3 (00:00) 26.8 8.61 (21:30) 5.83 (23:50) 0 0 0 0 0
28-08-2018 36.9 (16:40) 21.8 (00:00) 29.4 11.67 (21:00) 7.78 (21:00) 0 0 0 0 0
27-08-2018 39.5 (16:50) 20.7 (00:00) 30.1 12.5 (23:00) 8.33 (23:00) 0 0 0 0 0
26-08-2018 39.1 (16:50) 18.9 (00:00) 29 7.78 (19:10) 5.28 (00:10) 0 0 0 0 0
25-08-2018 38.6 (17:20) 21.4 (00:00) 30 9.44 (16:20) 5.28 (22:50) 0 0 0 0 0

Gráficas

Temp. máximas Temp. mínimas Temp. medias Precipitaciones Rachas de viento máximas Velocidades máximas media en intervalos de 10 minutos

Datos horarios

Fecha y hora oficial Temperatura (ºC) Velocidad del viento (km/h) Dirección del viento Racha (km/h) Dirección de racha Precipitación (mm) Presión (hPa) Tendencia (hPa) Humedad (%)
2018-09-23 23:00:00 26.9 9 Sur 19 Sur 0 1004.7 1.4 33
2018-09-23 22:00:00 28.2 14 Sudoeste 25 Sudoeste 0 1004.3 1.2 32
2018-09-23 21:00:00 29.7 16 Sudoeste 25 Sudoeste 0 1003.6 0.2 31
2018-09-23 20:00:00 32.7 15 Sur 23 Sur 0 1003.3 -0.5 30
2018-09-23 19:00:00 35.9 4 Sur 16 Sudeste 0 1003.1 -1.2 30
2018-09-23 18:00:00 36.6 4 Sur 15 Nordeste 0 1003.4 -1.6 30
2018-09-23 17:00:00 35.9 6 Sudeste 21 Sudeste 0 1003.8 -2.1 30
2018-09-23 16:00:00 35.5 8 Sur 21 Sudeste 0 1004.3 -2.1 31
2018-09-23 15:00:00 35 8 Este 24 Este 0 1005 -2.2 32
2018-09-23 14:00:00 33.9 10 Este 20 Sudeste 0 1005.9 -1.5 35
2018-09-23 13:00:00 32.3 9 Este 19 Sudeste 0 1006.4 -0.7 38
2018-09-23 12:00:00 29.7 10 Sudeste 19 Este 0 1007.2 0.7 44
2018-09-23 11:00:00 26.6 3 Sur 8 Sur 0 1007.4 1.3 49
2018-09-23 10:00:00 23.8 3 Sudeste 6 Sudeste 0 1007.1 1.3 53
2018-09-23 09:00:00 20.3 0 Calma 8 Sudoeste 0 1006.5 0.6 56
2018-09-23 08:00:00 18.4 0 Calma 8 Sur 0 1006.1 0.3 56
2018-09-23 07:00:00 19.5 0 Calma 5 Sudeste 0 1005.8 -0.3 52
2018-09-23 06:00:00 19.5 0 Calma 4 Sur 0 1005.9 -0.6 48
2018-09-23 05:00:00 20.7 0 Calma 6 Sur 0 1005.8 -0.7 45
2018-09-23 04:00:00 21.8 0 Calma 6 Noroeste 0 1006.1 -0.6 40
2018-09-23 03:00:00 22.7 0 Calma 8 Oeste 0 1006.5 0.2 38
2018-09-23 02:00:00 24.2 5 Noroeste 18 Oeste 0 1006.5 0.7 37
2018-09-23 01:00:00 25.4 7 Oeste 14 Sur 0 1006.7 1.4 36
2018-09-23 00:00:00 26.3 9 Sur 23 Sur 0 1006.3 1.8 35
2018-09-22 23:00:00 26.6 11 Sur 19 Sudoeste 0 1005.8 1.7 35
2018-09-22 22:00:00 27.5 12 Sudoeste 27 Sudoeste 0 1005.3 1.7 35
2018-09-22 21:00:00 29.1 21 Sudoeste 33 Sudoeste 0 1004.5 1 33
2018-09-22 20:00:00 31.6 20 Sur 30 Sur 0 1004.1 0.3 32
2018-09-22 19:00:00 34.5 20 Sur 30 Sudoeste 0 1003.6 -0.8 31
2018-09-22 18:00:00 36.2 9 Sur 21 Este 0 1003.5 -1.5 30
2018-09-22 17:00:00 36.5 3 Sur 21 Sudeste 0 1003.8 -1.9 30
2018-09-22 16:00:00 35.9 10 Sudeste 24 Sudeste 0 1004.4 -1.8 30
2018-09-22 15:00:00 35.3 5 Sudeste 21 Sudeste 0 1005 -1.5 32
2018-09-22 14:00:00 34.5 5 Nordeste 15 Este 0 1005.7 -0.8 35
2018-09-22 13:00:00 32.5 7 Sudeste 16 Sudeste 0 1006.2 0 38
2018-09-22 12:00:00 29.7 6 Sudeste 15 Este 0 1006.5 0.9 44
2018-09-22 11:00:00 27.3 9 Este 13 Este 0 1006.5 1.5 49
2018-09-22 10:00:00 23.5 4 Este 7 Sudeste 0 1006.2 1.6 56
2018-09-22 09:00:00 20.2 4 Sur 6 Sur 0 1005.6 1.3 61
2018-09-22 08:00:00 19.1 0 Calma 5 Sur 0 1005 0.9 62
2018-09-22 07:00:00 19.6 4 Sur 5 Sur 0 1004.6 0.5 60
2018-09-22 06:00:00 20.2 3 Sur 8 Sudeste 0 1004.3 0 60
2018-09-22 05:00:00 21.1 4 Sur 7 Sudeste 0 1004.1 -0.3 56
2018-09-22 04:00:00 21.8 0 Calma 8 Sudeste 0 1004.1 0 56
2018-09-22 03:00:00 22.5 3 Sur 6 Sur 0 1004.3 0.4 52
2018-09-22 02:00:00 23.3 5 Sudeste 7 Sudeste 0 1004.4 0.7 50
2018-09-22 01:00:00 24.1 3 Sudeste 11 Sudoeste 0 1004.1 1.5 46
2018-09-22 00:00:00 25.8 9 Sudoeste 17 Sudoeste 0 1003.9 1.9 43
2018-09-21 23:00:00 27.3 12 Sudoeste 15 Sudoeste 0 1003.7 2.3 40
2018-09-21 22:00:00 27.9 7 Noroeste 14 Noroeste 0 1002.6 1.5 35
2018-09-21 21:00:00 29.3 8 Noroeste 14 Norte 0 1002 0.8 33
2018-09-21 20:00:00 32.7 2 Noroeste 7 Noroeste 0 1001.4 -0.1 30
2018-09-21 19:00:00 34.2 0 Calma 17 Sudeste 0 1001.1 -0.8 29
2018-09-21 18:00:00 34 7 Sudeste 17 Sudeste 0 1001.2 -1.4 30
2018-09-21 17:00:00 34.5 5 Sudeste 16 Sur 0 1001.5 -1.9 30
2018-09-21 16:00:00 33.6 4 Sur 14 Norte 0 1001.9 -2.3 32
2018-09-21 15:00:00 32.9 0 Calma 15 Nordeste 0 1002.6 -1.9 36
2018-09-21 14:00:00 31 7 Este 15 Este 0 1003.4 -0.6 45
2018-09-21 13:00:00 30.2 4 Nordeste 17 Este 0 1004.2 0.4 48
2018-09-21 12:00:00 28.3 4 Nordeste 12 Este 0 1004.5 0.5 53
2018-09-21 11:00:00 25.8 5 Este 9 Este 0 1004 0.6 64
2018-09-21 10:00:00 23.1 3 Sudeste 9 Sudeste 0 1003.8 1.4 74
2018-09-21 09:00:00 20.8 0 Calma 5 Sudeste 0 1004 1.3 84
2018-09-21 08:00:00 19.7 0 Calma 8 Sudeste 0 1003.4 0.6 89
2018-09-21 07:00:00 19.8 6 Sudeste 16 Sudoeste 0 1002.4 -0.5 85
2018-09-21 06:00:00 20.4 4 Sudeste 13 Sudoeste 0 1002.7 -0.5 82
2018-09-21 05:00:00 22 11 Sudoeste 14 Sudoeste 0 1002.8 -0.5 75
2018-09-21 04:00:00 21.4 9 Sur 14 Oeste 0 1002.9 -0.2 75
2018-09-21 03:00:00 22.2 8 Sudoeste 14 Sudoeste 0 1003.2 0.3 74
2018-09-21 02:00:00 22.8 9 Sudoeste 13 Sudoeste 0 1003.3 0.8 70
2018-09-21 01:00:00 24.2 6 Sur 17 Sudoeste 0 1003.1 1.3 66
2018-09-21 00:00:00 25.2 13 Sudoeste 20 Sudoeste 0 1002.9 1.4 62
2018-09-20 23:00:00 26.5 13 Sudoeste 19 Sudoeste 0 1002.5 1.5 55
2018-09-20 22:00:00 26.9 10 Sudoeste 21 Sur 0 1001.8 1 50
2018-09-20 21:00:00 28.3 13 Sudoeste 18 Sur 0 1001.5 0.5 46
2018-09-20 20:00:00 30.5 8 Sur 15 Sudoeste 0 1001 -0.5 41
2018-09-20 19:00:00 32.3 10 Sudoeste 18 Sudoeste 0 1000.8 -1.3 38
2018-09-20 18:00:00 33.3 9 Sur 19 Sur 0 1001 -1.8 35
2018-09-20 17:00:00 33.5 10 Sudeste 23 Sur 0 1001.5 -2 35
2018-09-20 16:00:00 33.2 8 Sur 30 Sur 0 1002.1 -2.2 38
2018-09-20 15:00:00 31.9 8 Sudeste 22 Sudeste 0 1002.8 -2 43
2018-09-20 14:00:00 31.5 3 Sudeste 21 Sudeste 0 1003.5 -1.6 45
2018-09-20 13:00:00 30 4 Sudeste 18 Sudeste 0 1004.3 -0.5 50
2018-09-20 12:00:00 28.5 8 Sudeste 18 Sur 0 1004.8 0.1 59
2018-09-20 11:00:00 26.8 2 Nordeste 9 Este 0 1005.1 0.8 63
2018-09-20 10:00:00 23.6 6 Este 9 Este 0 1004.8 0.5 73
2018-09-20 09:00:00 21.3 0 Calma 4 Sur 0 1004.7 0.6 76
2018-09-20 08:00:00 20.7 2 Sur 8 Sudeste 0 1004.3 0 76
2018-09-20 07:00:00 21.5 6 Sudeste 19 Sur 0 1004.3 -0.2 72
2018-09-20 06:00:00 22.4 12 Sur 22 Sur 0 1004.1 -0.1 70
2018-09-20 05:00:00 21.9 10 Sudoeste 12 Sudoeste 0 1004.3 -0.2 69
2018-09-20 04:00:00 22.2 7 Sur 14 Sudoeste 0 1004.5 -0.2 67
2018-09-20 03:00:00 22.8 10 Sudoeste 14 Sudoeste 0 1004.2 -0.3 66
2018-09-20 02:00:00 23.7 9 Sur 14 Sur 0 1004.5 0.4 63
2018-09-20 01:00:00 25 9 Sur 18 Sudoeste 0 1004.7 1.2 61
2018-09-20 00:00:00 25.9 12 Sur 18 Sur 0 1004.5 1.7 56
2018-09-19 23:00:00 26.9 7 Sur 22 Sur 0 1004.1 1.9 53
2018-09-19 22:00:00 27.8 12 Sudoeste 20 Sudoeste 0 1003.5 1.7 50
2018-09-19 21:00:00 29.5 11 Sur 18 Sudoeste 0 1002.8 1.1 41
2018-09-19 20:00:00 32.1 4 Nordeste 9 Nordeste 0 1002.2 0 36
2018-09-19 19:00:00 33.3 4 Nordeste 15 Sudeste 0 1001.8 -0.8 35
2018-09-19 18:00:00 34.1 2 Nordeste 10 Nordeste 0 1001.7 -1.7 35
2018-09-19 17:00:00 33.1 4 Nordeste 17 Nordeste 0 1002.2 -1.8 38
2018-09-19 16:00:00 33.3 4 Sudeste 22 Sudeste 0 1002.6 -2.1 39
2018-09-19 15:00:00 32.9 6 Sur 15 Sudeste 0 1003.4 -1.5 41
2018-09-19 14:00:00 31.5 7 Sudeste 15 Este 0 1004 -0.6 44
2018-09-19 13:00:00 30.3 6 Este 14 Este 0 1004.7 0.4 45
2018-09-19 12:00:00 28.3 7 Sudeste 13 Sudeste 0 1004.9 1.1 55
2018-09-19 11:00:00 25.5 5 Este 11 Este 0 1004.6 1.3 69
2018-09-19 10:00:00 23.3 2 Este 5 Nordeste 0 1004.3 1.2 74
2018-09-19 09:00:00 20.6 0 Calma 6 Sur 0 1003.8 0.9 85
2018-09-19 08:00:00 19.1 2 Sur 6 Sudeste 0 1003.3 0.6 85
2018-09-19 07:00:00 19.3 0 Calma 5 Sudeste 0 1003.1 0.4 81
2018-09-19 06:00:00 19.6 4 Sudeste 6 Sudeste 0 1002.9 0.2 78
2018-09-19 05:00:00 20.9 0 Calma 4 Sudoeste 0 1002.7 0.3 76
2018-09-19 04:00:00 22.2 0 Calma 6 Sudeste 0 1002.7 0.3 71
2018-09-19 03:00:00 22.8 0 Calma 18 Sudoeste 0 1002.7 0.4 71
2018-09-19 02:00:00 23.5 14 Sudoeste 18 Sudoeste 0 1002.4 0 69
2018-09-19 01:00:00 24.1 12 Sudoeste 21 Sudoeste 0 1002.4 0.8 63
2018-09-19 00:00:00 24.9 9 Sudoeste 12 Sur 0 1002.3 1.6 58
2018-09-18 23:00:00 25.9 3 Noroeste 12 Sudoeste 0 1002.4 2.8 53
2018-09-18 22:00:00 26.6 7 Sudoeste 11 Sudoeste 0 1001.6 2 49
2018-09-18 21:00:00 28.1 4 Norte 15 Nordeste 0 1000.7 1.5 46
2018-09-18 20:00:00 30.1 8 Nordeste 28 Noroeste 0 999.6 0.4 42
2018-09-18 19:00:00 32.2 12 Noroeste 21 Oeste 0 999.6 0 38
2018-09-18 18:00:00 33 14 Oeste 22 Oeste 0 999.2 -1 38
2018-09-18 17:00:00 33.1 10 Oeste 25 Oeste 0 999.2 -1.8 39
2018-09-18 16:00:00 32.4 9 Oeste 19 Oeste 0 999.6 -1.8 41
2018-09-18 15:00:00 30.2 5 Sudoeste 15 Sur 0 1000.2 -1.7 50
2018-09-18 14:00:00 30.9 3 Sudeste 16 Sudoeste 0 1001 -0.8 52
2018-09-18 13:00:00 28.8 6 Sudoeste 16 Sur 0 1001.4 0 60
2018-09-18 12:00:00 27.6 5 Sur 14 Sur 0 1001.9 0.9 66
2018-09-18 11:00:00 25.4 5 Sur 10 Sudoeste 0 1001.8 1.2 76
2018-09-18 10:00:00 22.8 6 Sudeste 10 Sudeste 0 1001.4 1.3 86
2018-09-18 09:00:00 20.2 3 Sudeste 7 Sudeste 0 1001 1.3 95
2018-09-18 08:00:00 19.7 2 Sur 9 Sudeste 0 1000.6 0.9 94
2018-09-18 07:00:00 19.7 3 Sudeste 8 Sudeste 0 1000.1 0.4 91
2018-09-18 06:00:00 20.2 0 Calma 11 Sudoeste 0 999.7 0 90
2018-09-18 05:00:00 20.8 0 Calma 5 Sudoeste 0 999.7 -0.2 87
2018-09-18 04:00:00 21 0 Calma 5 Sur 0 999.7 -0.4 83
2018-09-18 03:00:00 21.5 2 Sur 5 Sudoeste 0 999.7 -0.6 79
2018-09-18 02:00:00 22.3 0 Calma 6 Sur 0 999.9 0.3 75
2018-09-18 01:00:00 22.5 5 Sudeste 26 Este 0 1000.1 0.9 74
2018-09-18 00:00:00 23.7 15 Este 24 Este 0 1000.3 1.8 69
2018-09-17 23:00:00 24.8 13 Sudoeste 19 Sudoeste 0 999.6 1.6 67
2018-09-17 22:00:00 25.4 14 Sudoeste 22 Sudoeste 0 999.2 1.7 65
2018-09-17 21:00:00 26.1 11 Sur 25 Sur 0 998.5 0.9 59
2018-09-17 20:00:00 27.9 18 Sur 28 Sudoeste 0 998 -0.2 55
2018-09-17 19:00:00 30.8 11 Sur 20 Sur 0 997.5 -1.5 44
2018-09-17 18:00:00 32.1 9 Sur 19 Sur 0 997.6 -2.7 42
2018-09-17 17:00:00 32 14 Sudeste 26 Sudeste 0 998.2 -2.9 43
2018-09-17 16:00:00 30.8 9 Sudeste 21 Sudeste 0 999 -3 48
2018-09-17 15:00:00 29.5 10 Este 24 Sudeste 0 1000.3 -2 51
2018-09-17 14:00:00 28.7 15 Sudeste 32 Sudeste 0 1001.1 -1.4 54
2018-09-17 13:00:00 26.2 3 Este 11 Sudeste 0 1002 -0.3 66
2018-09-17 12:00:00 24 6 Este 10 Este 0 1002.3 -- 75
2018-09-17 11:00:00 22.1 2 Este 9 Este 0 1002.5 -- 86
2018-09-17 10:00:00 21 3 Este -- -- -- 1002.3 -- 92
2018-09-17 09:00:00 -- -- -- -- -- -- -- -- --
2018-09-17 08:00:00 -- -- -- -- -- -- -- -- --
2018-09-17 07:00:00 -- -- -- -- -- -- -- -- --
2018-09-17 06:00:00 -- -- -- -- -- -- -- -- --
2018-09-17 05:00:00 -- -- -- -- -- -- -- -- --
2018-09-17 04:00:00 -- -- -- -- -- -- -- -- --
2018-09-17 03:00:00 -- -- -- -- -- -- -- -- --
2018-09-17 02:00:00 -- -- -- -- -- -- -- -- --
2018-09-17 01:00:00 -- -- -- -- -- -- -- -- --
2018-09-17 00:00:00 -- -- -- -- -- -- -- -- --
2018-09-16 23:00:00 -- -- -- -- -- -- -- -- --
2018-09-16 22:00:00 -- -- -- -- -- -- -- -- --
2018-09-16 21:00:00 -- -- -- -- -- -- -- -- --
2018-09-16 20:00:00 -- -- -- -- -- -- -- -- --
2018-09-16 19:00:00 31.5 3 Nordeste 14 Este 0 1001.3 -1 39
2018-09-16 18:00:00 31.3 6 Este 21 Este 0 1001.3 -2.2 39
2018-09-16 17:00:00 31 8 Este 23 Este 0 1001.7 -2.5 40
2018-09-16 16:00:00 30.3 7 Este 21 Este 0 1002.3 -2.7 43
2018-09-16 15:00:00 29.4 11 Nordeste 21 Este 0 1003.5 -2.1 46
2018-09-16 14:00:00 28.4 10 Este 23 Este 0 1004.2 -1.7 56
2018-09-16 13:00:00 26.9 9 Este 18 Este 0 1005 -0.5 62
2018-09-16 12:00:00 25.5 10 Este 15 Este 0 1005.6 0.5 66
2018-09-16 11:00:00 23.7 9 Nordeste 15 Este 0 1005.9 1 78
2018-09-16 10:00:00 -- -- -- -- -- -- -- -- --
2018-09-16 09:00:00 -- -- -- -- -- -- -- -- --
2018-09-16 08:00:00 -- -- -- -- -- -- -- -- --
2018-09-16 07:00:00 -- -- -- -- -- -- -- -- --
2018-09-16 06:00:00 -- -- -- -- -- -- -- -- --
2018-09-16 05:00:00 -- -- -- -- -- -- -- -- --
2018-09-16 04:00:00 -- -- -- -- -- -- -- -- --
2018-09-16 03:00:00 -- -- -- -- -- -- -- -- --
2018-09-16 02:00:00 -- -- -- -- -- -- -- -- --
2018-09-16 01:00:00 -- -- -- -- -- -- -- -- --
2018-09-16 00:00:00 -- -- -- -- -- -- -- -- --
2018-09-15 23:00:00 -- -- -- -- -- -- -- -- --
2018-09-15 22:00:00 -- -- -- -- -- -- -- -- --
2018-09-15 21:00:00 -- -- -- -- -- -- -- -- --
2018-09-15 20:00:00 -- -- -- -- -- -- -- -- --
2018-09-15 19:00:00 -- -- -- -- -- -- -- -- --
2018-09-15 18:00:00 21.5 22 Nordeste 46 Nordeste 2.4 1003.2 1.3 81
2018-09-15 17:00:00 29.4 8 Nordeste 18 Norte 0 1001.4 -1.1 45
2018-09-15 16:00:00 30 7 Nordeste 17 Nordeste 0 1001.3 -1.7 46
2018-09-15 15:00:00 29.6 7 Nordeste 22 Nordeste 0 1001.9 -1.6 49
2018-09-15 14:00:00 29.2 2 Nordeste 17 Nordeste 0 1002.5 -1.1 50
2018-09-15 13:00:00 27.9 4 Nordeste 24 Este 0 1003 -0.3 56
2018-09-15 12:00:00 25.5 4 Norte 12 Nordeste 0 1003.5 0.6 62
2018-09-15 11:00:00 23.8 5 Nordeste 12 Nordeste 0 1003.6 1.2 70
2018-09-15 10:00:00 21.1 3 Nordeste 8 Norte 0 1003.3 1.3 82
2018-09-15 09:00:00 17.8 2 Sudeste 5 Sudeste 0 1002.9 1 96
2018-09-15 08:00:00 16.7 0 Calma 6 Sudeste 0 1002.4 0.3 95
2018-09-15 07:00:00 17.5 4 Noroeste 5 Noroeste 0 1002 -0.4 95
2018-09-15 06:00:00 17.5 0 Calma 8 Sudeste 0 1001.9 -0.8 96
2018-09-15 05:00:00 17.9 4 Sudeste 8 Sudeste 0 1002.1 -1.1 95
2018-09-15 04:00:00 18.5 0 Calma 4 Norte 0 1002.4 -1.1 92
2018-09-15 03:00:00 19.1 0 Calma 14 Sudoeste 0 1002.7 -0.6 92
2018-09-15 02:00:00 19.4 11 Sur 17 Sudoeste 0 1003.2 -0.4 92
2018-09-15 01:00:00 19.4 9 Sudeste 29 Oeste 0 1003.5 0.6 92
2018-09-15 00:00:00 20.1 9 Oeste 23 Sudoeste 0.1 1003.3 0 87
2018-09-14 23:00:00 20.8 15 Sudoeste 20 Sudoeste 0 1003.6 1.1 82
2018-09-14 22:00:00 20.6 8 Oeste 22 Norte 0 1002.9 2.1 85
2018-09-14 21:00:00 21.7 23 Noroeste 49 Norte 0.1 1003.3 2.5 72
2018-09-14 20:00:00 24.1 5 Sur 28 Sudoeste 0 1002.5 1.9 56
2018-09-14 19:00:00 25 22 Sudoeste 48 Sudoeste 0 1000.8 -0.5 54
2018-09-14 18:00:00 30.5 14 Sudoeste 25 Oeste 0 1000.8 -1.1 44
2018-09-14 17:00:00 31.5 10 Oeste 20 Oeste 0 1000.6 -2.1 44
2018-09-14 16:00:00 30.2 9 Oeste 19 Oeste 0 1001.3 -2 47
2018-09-14 15:00:00 29.4 5 Sudoeste 14 Oeste 0 1001.9 -1.7 51
2018-09-14 14:00:00 28.1 5 Sudoeste 12 Sudoeste 0 1002.7 -0.8 58
2018-09-14 13:00:00 26.7 3 Sur 12 Sudoeste 0 1003.3 0.3 64
2018-09-14 12:00:00 24.5 2 Nordeste 9 Este 0 1003.6 0.9 77
2018-09-14 11:00:00 22.8 2 Nordeste 7 Nordeste 0 1003.5 1 86
2018-09-14 10:00:00 21.4 2 Norte 9 Norte 0 1003 0.5 91
2018-09-14 09:00:00 20.5 0 Calma 5 Noroeste 0 1002.7 0.6 92
2018-09-14 08:00:00 19.9 0 Calma 3 Sudeste 0 1002.5 0.1 93
2018-09-14 07:00:00 19.7 0 Calma 5 Norte 0 1002.5 -0.3 91
2018-09-14 06:00:00 19.7 0 Calma 5 Nordeste 0 1002.1 -1.3 92
2018-09-14 05:00:00 20.3 0 Calma 13 Sudoeste 0 1002.4 -0.9 90
2018-09-14 04:00:00 20.8 8 Sudoeste 15 Sudoeste 0 1002.8 -0.5 89
2018-09-14 03:00:00 21.5 7 Oeste 18 Sudoeste 0 1003.4 0.1 85
2018-09-14 02:00:00 22.1 7 Sudoeste 15 Sudoeste 0 1003.3 0.8 78
2018-09-14 01:00:00 22.8 5 Sudoeste 22 Sudoeste 0 1003.3 1.3 70
2018-09-14 00:00:00 23.7 15 Sudoeste 31 Sudoeste 0 1003.3 1.8 64
2018-09-13 23:00:00 24.8 21 Sudoeste 36 Sudoeste 0 1002.5 1.4 64
2018-09-13 22:00:00 26.2 26 Sudoeste 35 Sudoeste 0 1002 1 58
2018-09-13 21:00:00 27.3 20 Sudoeste 34 Sudoeste 0 1001.5 0.3 51
2018-09-13 20:00:00 28.5 26 Sudoeste 41 Sudoeste 0 1001.1 0.2 47
2018-09-13 19:00:00 31.2 29 Sudoeste 43 Sudoeste 0 1001 -1.1 40
2018-09-13 18:00:00 33.6 16 Sudoeste 27 Sudoeste 0 1001.2 -1.7 36
2018-09-13 17:00:00 33.9 5 Noroeste 21 Noroeste 0 1000.9 -3 38
2018-09-13 16:00:00 33.3 9 Oeste 19 Sudoeste 0 1002.1 -2.4 40
2018-09-13 15:00:00 31.7 3 Oeste 21 Noroeste 0 1002.9 -2.2 44
2018-09-13 14:00:00 30.4 4 Oeste 18 Nordeste 0 1003.9 -1.1 51
2018-09-13 13:00:00 28.7 7 Noroeste 15 Noroeste 0 1004.5 -0.1 58
2018-09-13 12:00:00 27.7 4 Sur 15 Este 0 1005.1 0.5 63
2018-09-13 11:00:00 26.1 4 Sudeste 18 Sudeste 0 1005 0.4 72
2018-09-13 10:00:00 23.3 2 Sudeste 6 Sudeste 0 1004.6 0.5 83
2018-09-13 09:00:00 20.7 0 Calma 4 Sudeste 0 1004.6 0.5 91
2018-09-13 08:00:00 19.9 0 Calma 5 Sudoeste 0 1004.6 0.3 93
2018-09-13 07:00:00 20.3 6 Sur 9 Sur 0 1004.1 -0.4 93
2018-09-13 06:00:00 20.6 8 Sudoeste 9 Sudoeste 0 1004.1 -1 92
2018-09-13 05:00:00 20.8 4 Sur 6 Sudoeste 0 1004.3 -1 85
2018-09-13 04:00:00 21.8 5 Sudoeste 12 Sudoeste 0 1004.5 -0.9 83
2018-09-13 03:00:00 22.7 3 Sudoeste 10 Sudoeste 0 1005.1 -0.5 76
2018-09-13 02:00:00 23.7 4 Oeste 17 Oeste 0 1005.3 0.4 70
2018-09-13 01:00:00 24.5 7 Sudoeste 28 Oeste 0 1005.4 1.3 63
2018-09-13 00:00:00 25.4 19 Sudoeste 32 Oeste 0 1005.6 2.2 60
2018-09-12 23:00:00 27 20 Oeste 35 Oeste 0 1004.9 -- 53
2018-09-12 22:00:00 28.6 22 Oeste 32 Oeste 0 1004.1 0.7 46
2018-09-12 21:00:00 30.1 12 Sudoeste 14 Sudoeste 0 1003.4 -0.4 38
2018-09-12 20:00:00 -- 3 Sur 14 Sudoeste 0 -- -- --
2018-09-12 19:00:00 33.4 9 Sur 15 Sudeste 0 1003.4 -1.1 36
2018-09-12 18:00:00 33.1 5 Sudeste 17 Sudeste 0 1003.8 -1.2 37
2018-09-12 17:00:00 32.7 6 Sudeste 18 Sudeste 0 1004 -1.8 38
2018-09-12 16:00:00 32.3 6 Este 24 Sur 0 1004.5 -2 42
2018-09-12 15:00:00 31.9 16 Sudeste 26 Sudeste 0 1005 -1.8 45
2018-09-12 14:00:00 31.4 10 Sudeste 25 Sudeste 0 1005.8 -0.8 47
2018-09-12 13:00:00 30.2 9 Sudeste 23 Sudeste 0 1006.5 0.1 54
2018-09-12 12:00:00 29.1 12 Este 23 Sudeste 0 1006.8 0.5 58
2018-09-12 11:00:00 27.2 10 Sudeste 15 Este 0 1006.6 0.9 67
2018-09-12 10:00:00 24.9 3 Este 9 Este 0 1006.4 1.3 76
2018-09-12 09:00:00 21.7 0 Calma 7 Sudeste 0 1006.3 1.3 89
2018-09-12 08:00:00 20.6 6 Sudeste 10 Sudeste 0 1005.7 0.7 89
2018-09-12 07:00:00 21 0 Calma 5 Sudeste 0 1005.1 0.4 85
2018-09-12 06:00:00 21.8 3 Sudeste 10 Sur 0 1005 0 82
2018-09-12 05:00:00 23.2 10 Sur 13 Sur 0 1005 0 79
2018-09-12 04:00:00 22.8 6 Sudeste 17 Sur 0 1004.7 -0.3 76
2018-09-12 03:00:00 24.1 11 Sur 18 Sur 0 1005 0.2 72
2018-09-12 02:00:00 24.5 7 Sur 15 Sur 0 1005 0.5 71
2018-09-12 01:00:00 24.1 3 Sudeste 10 Sur 0 1005 1.5 70
2018-09-12 00:00:00 24.6 4 Sur 14 Sur 0 1004.8 2.2 67
2018-09-11 23:00:00 25.4 5 Sur 23 Sur 0 1004.5 2.3 63
2018-09-11 22:00:00 25.9 16 Sur 32 Sudoeste 0 1003.5 1.4 59
2018-09-11 21:00:00 27.2 20 Sur 30 Sur 0 1002.6 0.5 55
2018-09-11 20:00:00 29.2 21 Sur 32 Sur 0 1002.2 -0.3 47
2018-09-11 19:00:00 31.2 20 Sur 31 Sur 0 1002.1 -1 42
2018-09-11 18:00:00 31.8 8 Sur 18 Este 0 1002.1 -1.8 39
2018-09-11 17:00:00 31.8 8 Este 19 Este 0 1002.5 -2.5 40
2018-09-11 16:00:00 31.9 6 Este 23 Este 0 1003.1 -2.4 40
2018-09-11 15:00:00 30.9 9 Este 22 Sudeste 0 1003.9 -2 42
2018-09-11 14:00:00 29.5 5 Este 19 Sudeste 0 1005 -0.7 50
2018-09-11 13:00:00 27.9 8 Este 16 Este 0 1005.5 0.2 53
2018-09-11 12:00:00 26.7 8 Este 14 Este 0 1005.9 0.7 63
2018-09-11 11:00:00 25.1 6 Este 14 Este 0 1005.7 0.9 69
2018-09-11 10:00:00 22.8 8 Este 12 Este 0 1005.3 0.8 78
2018-09-11 09:00:00 20.5 3 Este 9 Sudeste 0 1005.2 0.7 82
2018-09-11 08:00:00 20.1 0 Calma 4 Nordeste 0 1004.8 0.2 80
2018-09-11 07:00:00 20.1 3 Noroeste 4 Noroeste 0 1004.5 -0.1 76
2018-09-11 06:00:00 20.3 0 Calma 6 Noroeste 0 1004.5 -0.3 76
2018-09-11 05:00:00 20.6 4 Noroeste 5 Noroeste 0 1004.6 -0.3 74
2018-09-11 04:00:00 21.5 0 Calma 6 Nordeste 0 1004.6 -0.3 73
2018-09-11 03:00:00 22.4 0 Calma 14 Sur 0 1004.8 0.3 73
2018-09-11 02:00:00 23.2 11 Sur 15 Sur 0 1004.9 0.8 70
2018-09-11 01:00:00 22.7 2 Este 14 Sur 0 1004.9 1.2 70
2018-09-11 00:00:00 23.4 10 Sur 19 Sudoeste 0 1004.5 1.7 68
2018-09-10 23:00:00 24.1 12 Sudoeste 24 Sudoeste 0 1004.1 1.9 63
2018-09-10 22:00:00 25.2 17 Sudoeste 30 Sur 0 1003.7 1.5 53
2018-09-10 21:00:00 27.4 17 Sur 25 Sur 0 1002.8 0.6 42
2018-09-10 20:00:00 30.4 8 Sudeste 17 Sudeste 0 1002.2 -0.3 31
2018-09-10 19:00:00 31.8 9 Sudeste 24 Este 0 1002.2 -1 30
2018-09-10 18:00:00 32.4 11 Este 22 Este 0 1002.2 -1.8 30
2018-09-10 17:00:00 32.1 15 Este 30 Este 0 1002.5 -2.3 30
2018-09-10 16:00:00 31.7 16 Nordeste 34 Este 0 1003.2 -2.2 33
2018-09-10 15:00:00 30.3 18 Nordeste 31 Este 0 1004 -1.6 35
2018-09-10 14:00:00 28.5 17 Nordeste 29 Este 0 1004.8 -0.8 41
2018-09-10 13:00:00 27.7 16 Este 28 Este 0 1005.4 -0.1 44
2018-09-10 12:00:00 26.7 19 Nordeste 30 Nordeste 0 1005.6 0.3 46
2018-09-10 11:00:00 23.8 15 Este 28 Este 0 1005.6 0.5 58
2018-09-10 10:00:00 21.4 10 Este 15 Este 0 1005.5 0.7 70
2018-09-10 09:00:00 19.1 0 Calma 8 Norte 0 1005.3 0.7 77
2018-09-10 08:00:00 16.1 3 Noroeste 9 Noroeste 0 1005.1 0.1 83
2018-09-10 07:00:00 16.3 0 Calma 9 Norte 0 1004.8 -0.2 76
2018-09-10 06:00:00 17.2 6 Noroeste 8 Noroeste 0 1004.6 -0.4 77
2018-09-10 05:00:00 17 4 Noroeste 7 Noroeste 0 1005 0 78
2018-09-10 04:00:00 17.6 4 Oeste 8 Oeste 0 1005 0.3 83
2018-09-10 03:00:00 17.8 4 Sudeste 8 Sudeste 0 1005 0.1 83
2018-09-10 02:00:00 18.6 0 Calma 9 Sudoeste 0 1005 0.1 79
2018-09-10 01:00:00 19.8 0 Calma 7 Sur 0 1004.7 0.6 74
2018-09-10 00:00:00 20.7 0 Calma 8 Sur 0 1004.9 1.5 70
2018-09-09 23:00:00 21.6 6 Sur 8 Sudeste 0 1004.9 2.6 66
2018-09-09 22:00:00 22.7 3 Sur 9 Sur 0 1004.1 2.9 59
2018-09-09 21:00:00 24.1 7 Sur 15 Sur 0 1003.4 2.5 53
2018-09-09 20:00:00 25.3 8 Sudoeste 29 Sur 0 1002.3 1.8 49
2018-09-09 19:00:00 27 23 Sur 32 Sur 0 1001.2 0.1 46
2018-09-09 18:00:00 29.3 22 Sur 32 Sudeste 0 1000.9 -1.2 42
2018-09-09 17:00:00 30.5 9 Sudeste 24 Este 0 1000.5 -2.3 37
2018-09-09 16:00:00 29.7 11 Este 25 Este 0 1001.1 -2.4 42
2018-09-09 15:00:00 28.6 14 Este 25 Sudeste 0 1002.1 -1.8 43
2018-09-09 14:00:00 27 15 Este 23 Este 0 1002.8 -1.1 49
2018-09-09 13:00:00 26.4 13 Nordeste 21 Nordeste 0.1 1003.5 -0.4 52
2018-09-09 12:00:00 23.7 9 Este 14 Este 0 1003.9 0.2 70
2018-09-09 11:00:00 22 5 Nordeste 12 Este 0 1003.9 0.7 85
2018-09-09 10:00:00 20.1 0 Calma 5 Nordeste 0 1003.9 1 99
2018-09-09 09:00:00 18.4 0 Calma 4 Este 0 1003.7 0.8 99
2018-09-09 08:00:00 17.7 3 Noroeste 6 Norte 0 1003.2 0.2 99
2018-09-09 07:00:00 17.4 0 Calma 4 Noroeste 0 1002.9 -0.6 99
2018-09-09 06:00:00 17.6 2 Oeste 8 Noroeste 0 1002.9 -0.5 99
2018-09-09 05:00:00 18 0 Calma -- -- 0 1003 -0.4 99
2018-09-09 04:00:00 18.5 0 Calma 0 Calma 0 1003.5 0.4 99
2018-09-09 03:00:00 18.6 0 Calma 3 Sur 0 1003.4 0.5 99
2018-09-09 02:00:00 18.9 0 Calma 5 Noroeste 0 1003.4 0.5 99
2018-09-09 01:00:00 18.7 4 Noroeste 8 Noroeste 0 1003.1 0.7 99
2018-09-09 00:00:00 19.2 3 Noroeste 8 Noroeste 0 1002.9 0.9 99
2018-09-08 23:00:00 19.7 3 Noroeste 6 Noroeste 0 1002.9 1.1 97
2018-09-08 22:00:00 20.6 2 Nordeste 5 Nordeste 0 1002.4 0.5 93
2018-09-08 21:00:00 21.1 0 Calma 4 Nordeste 0 1002 0.2 91
2018-09-08 20:00:00 21.3 3 Nordeste 11 Este 0 1001.8 0 94
2018-09-08 19:00:00 21.3 8 Este 15 Este 0 1001.9 0.2 95
2018-09-08 18:00:00 21.1 7 Sudeste 12 Este 0 1001.8 0.2 99
2018-09-08 17:00:00 20.1 4 Sudeste 19 Sudeste 1.4 1001.8 -0.2 99
2018-09-08 16:00:00 21.8 8 Sudeste 12 Sudeste 0 1001.7 -0.4 85
2018-09-08 15:00:00 22.5 2 Este 9 Este 0.1 1001.6 -0.5 83
2018-09-08 14:00:00 20.7 7 Sudeste 15 Sudeste 0.1 1002 0.5 86
2018-09-08 13:00:00 21.2 4 Noroeste 17 Noroeste 1.1 1002.1 1.1 83
2018-09-08 12:00:00 20 9 Sudoeste 19 Sudoeste 0.8 1002.1 1.6 85
2018-09-08 11:00:00 21.2 2 Sudoeste 10 Sur 0.1 1001.5 1 78
2018-09-08 10:00:00 20.5 3 Sudeste 6 Sur 0 1001 0.7 81
2018-09-08 09:00:00 18.8 0 Calma 6 Este 0 1000.5 0.8 85
2018-09-08 08:00:00 18 2 Este 10 Sur 0 1000.5 0.3 86
2018-09-08 07:00:00 18.4 10 Sur 14 Sur 0 1000.3 0.4 86
2018-09-08 06:00:00 18 8 Sudoeste 13 Sudoeste 0 999.7 -0.2 86
2018-09-08 05:00:00 18.4 3 Oeste 9 Sudoeste 0 1000.2 0.6 82
2018-09-08 04:00:00 19.2 5 Oeste 12 Sudoeste 0 999.9 0.6 78
2018-09-08 03:00:00 19.5 4 Oeste 26 Sudoeste 0 999.9 0.9 76
2018-09-08 02:00:00 20 17 Sudoeste 26 Sudoeste 0 999.6 1 72
2018-09-08 01:00:00 21 16 Sudoeste 32 Sudoeste 0 999.3 1.5 67
2018-09-08 00:00:00 22.3 19 Sudoeste 32 Sudoeste 0 999 2.5 62
2018-09-07 23:00:00 23.6 20 Sudoeste 32 Sudoeste 0 998.6 2.5 57
2018-09-07 22:00:00 26.1 13 Oeste 22 Oeste 0 997.8 1.9 50
2018-09-07 21:00:00 28.2 12 Noroeste 19 Norte 0 996.5 0.4 47
2018-09-07 20:00:00 29.9 9 Noroeste 17 Norte 0 996.1 -0.3 45
2018-09-07 19:00:00 31.3 5 Norte 17 Oeste 0 995.9 -1.1 43
2018-09-07 18:00:00 31.7 6 Sudoeste 16 Oeste 0 996.1 -1.5 43
2018-09-07 17:00:00 31.8 10 Oeste 22 Sudoeste 0 996.4 -1.8 44
2018-09-07 16:00:00 30.5 6 Oeste 19 Noroeste 0 997 -1.8 45
2018-09-07 15:00:00 30.3 6 Sur 16 Oeste 0 997.6 -1.8 48
2018-09-07 14:00:00 28.5 8 Oeste 14 Oeste 0 998.2 -1.3 55
2018-09-07 13:00:00 25.9 5 Este 13 Este 0 998.8 -0.6 64
2018-09-07 12:00:00 24.3 2 Nordeste 14 Este 0 999.4 0 72
2018-09-07 11:00:00 22.1 4 Este 14 Este 0 999.5 0.4 80
2018-09-07 10:00:00 20.1 3 Nordeste 9 Sudeste 0 999.4 0.3 87
2018-09-07 09:00:00 19.6 0 Calma 10 Sudoeste 0 999.4 0.4 89
2018-09-07 08:00:00 19.3 4 Sudoeste 14 Sudoeste 0 999.1 0.2 90
2018-09-07 07:00:00 19.4 7 Sudoeste 13 Oeste 0 999.1 0 90
2018-09-07 06:00:00 19.6 6 Sudoeste 14 Oeste 0 999 -0.6 91
2018-09-07 05:00:00 19.7 10 Sudoeste 19 Sudoeste 0 998.9 -0.8 91
2018-09-07 04:00:00 19.8 11 Sudoeste 23 Oeste 0 999.1 -0.3 91
2018-09-07 03:00:00 19.6 8 Oeste 17 Oeste 0 999.6 0.3 91
2018-09-07 02:00:00 19.8 6 Sudoeste 16 Sudoeste 0 999.7 0.4 87
2018-09-07 01:00:00 20.8 4 Oeste 30 Oeste 0 999.4 0.8 80
2018-09-07 00:00:00 21.6 15 Oeste 34 Oeste 0 999.3 1.2 74
2018-09-06 23:00:00 22.7 21 Sudoeste 32 Sudoeste 0 999.3 1.6 68
2018-09-06 22:00:00 24.5 15 Oeste 29 Oeste 0 998.6 1.1 58
2018-09-06 21:00:00 26.2 18 Oeste 35 Oeste 0 998.1 0.7 52
2018-09-06 20:00:00 28.7 17 Sudoeste 26 Sudoeste 0 997.7 0 44
2018-09-06 19:00:00 30.2 9 Oeste 24 Oeste 0 997.5 -0.9 41
2018-09-06 18:00:00 30.1 8 Noroeste 28 Noroeste 0 997.4 -1.8 42
2018-09-06 17:00:00 30.9 6 Oeste 22 Oeste 0 997.7 -1.9 44
2018-09-06 16:00:00 30.2 5 Norte 22 Este 0 998.4 -1.9 47
2018-09-06 15:00:00 29.3 2 Oeste 18 Este 0 999.2 -1.5 49
2018-09-06 14:00:00 27.9 8 Sudeste 14 Sudeste 0 999.6 -1.1 53
2018-09-06 13:00:00 27 2 Sudeste 12 Sur 0 1000.3 -0.3 62
2018-09-06 12:00:00 24.9 3 Sur 10 Este 0 1000.7 0.3 70
2018-09-06 11:00:00 23.3 3 Nordeste 9 Este 0 1000.7 0.6 77
2018-09-06 10:00:00 21.5 3 Este 8 Este 0 1000.6 0.6 79
2018-09-06 09:00:00 19 0 Calma 5 Sur 0 1000.4 0.5 87
2018-09-06 08:00:00 17.7 0 Calma 4 Sur 0 1000.1 0.3 90
2018-09-06 07:00:00 17.3 3 Sur 6 Sudeste 0 1000 0 91
2018-09-06 06:00:00 16.6 0 Calma 4 Este 0 999.9 -0.6 90
2018-09-06 05:00:00 17.4 0 Calma 5 Sudeste 0 999.8 -1 89
2018-09-06 04:00:00 18 5 Sur 13 Sudoeste 0 1000 -0.7 87
2018-09-06 03:00:00 19.2 7 Sudoeste 14 Sudoeste 0 1000.5 0 87
2018-09-06 02:00:00 19.9 11 Sudoeste 24 Sudoeste 0 1000.8 0.6 85
2018-09-06 01:00:00 20.4 19 Sudoeste 27 Sudoeste 0 1000.7 1 78
2018-09-06 00:00:00 21.1 18 Sudoeste 31 Sudoeste 0 1000.5 1.5 72
2018-09-05 23:00:00 22.2 18 Oeste 32 Oeste 0 1000.2 1.5 67
2018-09-05 22:00:00 23.5 13 Oeste 27 Sudoeste 0 999.7 1 61
2018-09-05 21:00:00 25 15 Oeste 25 Oeste 0 999 0 53
2018-09-05 20:00:00 27.1 15 Oeste 31 Sudoeste 0 998.7 -0.8 50
2018-09-05 19:00:00 28.9 14 Oeste 32 Oeste 0 998.7 -1.1 47
2018-09-05 18:00:00 29.6 15 Oeste 32 Oeste 0 999 -1.3 47
2018-09-05 17:00:00 28.8 16 Oeste 36 Oeste 0 999.5 -1.8 49
2018-09-05 16:00:00 28.9 12 Oeste 25 Oeste 0 999.8 -2 52
2018-09-05 15:00:00 27.4 9 Noroeste 24 Sudoeste 0 1000.3 -1.7 55
2018-09-05 14:00:00 26.2 7 Oeste 20 Noroeste 0 1001.3 -0.9 63
2018-09-05 13:00:00 24.9 5 Oeste 14 Oeste 0 1001.8 0 68
2018-09-05 12:00:00 24 6 Noroeste 14 Noroeste 0 1002 0.5 74
2018-09-05 11:00:00 23 5 Sudoeste 12 Sudoeste 0 1002.2 1 79
2018-09-05 10:00:00 20.5 5 Sur 8 Sur 0 1001.8 1 87
2018-09-05 09:00:00 17.8 3 Sudeste 6 Sudeste 0 1001.5 0.8 92
2018-09-05 08:00:00 16.8 3 Sur 9 Sudeste 0 1001.2 0.7 92
2018-09-05 07:00:00 17.1 9 Sudoeste 10 Sudoeste 0 1000.8 0.5 91
2018-09-05 06:00:00 17.7 8 Sudoeste 14 Sudoeste 0 1000.7 0.3 90
2018-09-05 05:00:00 18 9 Sudoeste 11 Sudoeste 0 1000.5 0 90
2018-09-05 04:00:00 18.1 6 Sudoeste 10 Sudoeste 0 1000.3 0.1 88
2018-09-05 03:00:00 18.3 5 Sudoeste 12 Sudoeste 0 1000.4 0.4 85
2018-09-05 02:00:00 19.4 8 Sudoeste 14 Sudoeste 0 1000.5 0.9 82
2018-09-05 01:00:00 20.1 10 Sudoeste 19 Sudoeste 0 1000.2 1.6 78
2018-09-05 00:00:00 21.2 13 Sudoeste 27 Sudoeste 0 1000 2.2 74
2018-09-04 23:00:00 22.3 13 Oeste 31 Sudoeste 0 999.6 2.4 67
2018-09-04 22:00:00 23.6 17 Oeste 29 Oeste 0 998.6 1.5 60
2018-09-04 21:00:00 25.3 13 Oeste 30 Oeste 0 997.8 0.8 52
2018-09-04 20:00:00 27.2 18 Oeste 31 Sudoeste 0 997.2 0 49
2018-09-04 19:00:00 28.6 19 Oeste 34 Oeste 0 997.1 -0.5 48
2018-09-04 18:00:00 29 17 Oeste 41 Sudoeste 0 997 -1 48
2018-09-04 17:00:00 29.2 17 Oeste 37 Oeste 0 997.2 -1.3 48
2018-09-04 16:00:00 29.3 14 Oeste 31 Oeste 0 997.6 -1.4 49
2018-09-04 15:00:00 28.5 9 Oeste 42 Sudoeste 0 998 -1.2 53
2018-09-04 14:00:00 27.5 11 Sudoeste 22 Sudoeste 0 998.5 -0.9 57
2018-09-04 13:00:00 25.5 3 Oeste 15 Sudoeste 0 999 -0.3 61
2018-09-04 12:00:00 24.8 4 Sur 14 Sur 0 999.2 0.1 66
2018-09-04 11:00:00 22.8 3 Este 15 Nordeste 0 999.4 0.6 72
2018-09-04 10:00:00 20.9 2 Sur 7 Este 0 999.3 0.5 83
2018-09-04 09:00:00 19.3 3 Sudeste 5 Sudeste 0 999.1 0 88
2018-09-04 08:00:00 18.5 3 Sudeste 5 Sudeste 0 998.8 0.1 88
2018-09-04 07:00:00 17.7 0 Calma 6 Sudeste 0 998.8 0 89
2018-09-04 06:00:00 17.3 2 Sudeste 7 Sur 0 999.1 -0.1 89
2018-09-04 05:00:00 17.3 2 Nordeste 5 Sur 0 998.7 -0.7 87
2018-09-04 04:00:00 17.9 5 Sudoeste 10 Sudoeste 0 998.8 -0.4 87
2018-09-04 03:00:00 18.4 6 Sudoeste 9 Sudoeste 0 999.2 0.1 87
2018-09-04 02:00:00 18.4 4 Sur 10 Sudoeste 0 999.4 0.4 85
2018-09-04 01:00:00 19.5 6 Sudoeste 18 Sudoeste 0 999.2 1.3 82
2018-09-04 00:00:00 20.2 9 Sudoeste 17 Oeste 0 999.1 2 78
2018-09-03 23:00:00 21 8 Sudoeste 31 Oeste 0 999 2 74
2018-09-03 22:00:00 22.2 15 Oeste 29 Oeste 0 997.9 1.3 68
2018-09-03 21:00:00 23.5 18 Oeste 38 Oeste 0 997.1 0.7 63
2018-09-03 20:00:00 25.7 18 Oeste 39 Oeste 0 997 0.8 58
2018-09-03 19:00:00 28 21 Oeste 44 Oeste 0 996.6 0.1 54
2018-09-03 18:00:00 29.6 21 Oeste 43 Oeste 0 996.4 -0.5 52
2018-09-03 17:00:00 30.9 21 Oeste 41 Sudoeste 0 996.2 -1.1 48
2018-09-03 16:00:00 31.2 18 Oeste 37 Sudoeste 0 996.5 -1.5 49
2018-09-03 15:00:00 31 13 Oeste 28 Sudoeste 0 996.9 -1.5 52
2018-09-03 14:00:00 30.6 11 Sudoeste 22 Sudoeste 0 997.3 -1.3 55
2018-09-03 13:00:00 28.3 6 Sudeste 15 Sudeste 0 998 -0.6 65
2018-09-03 12:00:00 27.5 5 Sudoeste 13 Sudoeste 0 998.4 -0.5 68
2018-09-03 11:00:00 25.5 0 Calma 11 Este 0 998.6 0 71
2018-09-03 10:00:00 23.8 5 Noroeste 12 Noroeste 0 998.6 0.2 78
2018-09-03 09:00:00 22.9 6 Oeste 10 Oeste 0 998.9 0.4 83
2018-09-03 08:00:00 22.5 0 Calma 4 Sudoeste 0 998.6 0.2 88
2018-09-03 07:00:00 22.2 2 Sudoeste 21 Oeste 0 998.4 -0.3 88
2018-09-03 06:00:00 22.6 11 Oeste 26 Oeste 0 998.5 -0.3 87
2018-09-03 05:00:00 22.9 18 Sudoeste 35 Sudoeste 0 998.4 -0.1 86
2018-09-03 04:00:00 23.1 25 Sudoeste 40 Sudoeste 0 998.7 0.3 85
2018-09-03 03:00:00 23.4 16 Oeste 37 Oeste 0 998.8 1 83
2018-09-03 02:00:00 24.6 13 Oeste 24 Sudoeste 0 998.5 0.8 76
2018-09-03 01:00:00 25.3 14 Oeste 28 Sudoeste 0 998.4 1.6 72
2018-09-03 00:00:00 26.5 20 Sudoeste 28 Sudoeste 0 997.8 1.9 68
2018-09-02 23:00:00 28.7 17 Sudoeste 27 Sudoeste 0 997.7 2.3 59
2018-09-02 22:00:00 31.5 13 Sudoeste 23 Sudoeste 0 996.8 1.4 46
2018-09-02 21:00:00 32.5 17 Sudoeste 28 Sur 0 995.9 0 37
2018-09-02 20:00:00 35.2 13 Sur 24 Sur 0 995.4 -0.9 34
2018-09-02 19:00:00 37.4 15 Sur 25 Sudeste 0 995.4 -1.6 33
2018-09-02 18:00:00 38 15 Sudeste 25 Sudeste 0 995.9 -1.8 32
2018-09-02 17:00:00 38.7 15 Sur 27 Sudeste 0 996.3 -2.1 31
2018-09-02 16:00:00 37.9 17 Sur 25 Sur 0 997 -2.1 33
2018-09-02 15:00:00 37.6 14 Sur 26 Sur 0 997.7 -2.2 34
2018-09-02 14:00:00 35.9 6 Sudeste 23 Sudeste 0 998.4 -1.7 37
2018-09-02 13:00:00 34.5 8 Sudeste 21 Este 0 999.1 -0.7 40
2018-09-02 12:00:00 32.2 7 Sudeste 15 Este 0 999.9 0.2 46
2018-09-02 11:00:00 29.4 6 Este 16 Este 0 1000.1 0.9 52
2018-09-02 10:00:00 27.3 12 Sudeste 17 Sudeste 0 999.8 0.5 57
2018-09-02 09:00:00 26 9 Sur 20 Sudeste 0 999.7 0.9 58
2018-09-02 08:00:00 24.1 12 Sudeste 17 Sur 0 999.2 0.4 63
2018-09-02 07:00:00 23 0 Calma 11 Sur 0 999.3 0.3 66
2018-09-02 06:00:00 22.9 3 Noroeste 8 Este 0 998.8 -0.5 64
2018-09-02 05:00:00 23.7 3 Oeste 8 Oeste 0 998.8 -0.7 63
2018-09-02 04:00:00 24.1 0 Calma 9 Sur 0 999 -0.4 60
2018-09-02 03:00:00 26 8 Sur 20 Sudoeste 0 999.3 -0.1 59
2018-09-02 02:00:00 26.5 10 Sur 24 Sudoeste 0 999.5 0.3 58
2018-09-02 01:00:00 27.3 15 Sur 22 Sudoeste 0 999.4 0.9 55
2018-09-02 00:00:00 28.2 9 Sur 18 Sur 0 999.4 1.4 50
2018-09-01 23:00:00 28.8 8 Sudoeste 26 Sur 0 999.2 1.6 41
2018-09-01 22:00:00 29.9 17 Sudoeste 27 Sudoeste 0 998.5 0.9 39
2018-09-01 21:00:00 30.9 17 Sudoeste 30 Sur 0 998 0.3 38
2018-09-01 20:00:00 33.2 19 Sur 35 Sur 0 997.6 -0.6 36
2018-09-01 19:00:00 35.1 25 Sur 34 Sur 0 997.6 -1 34
2018-09-01 18:00:00 36.2 22 Sur 40 Sur 0 997.7 -1.2 34
2018-09-01 17:00:00 36.4 24 Sur 36 Sur 0 998.2 -1.2 35
2018-09-01 16:00:00 36.4 23 Sur 35 Sur 0 998.6 -1.4 36
2018-09-01 15:00:00 36.8 22 Sur 35 Sudeste 0 998.9 -1.7 38
2018-09-01 14:00:00 34.6 16 Sudeste 28 Sudeste 0 999.4 -1.3 42
2018-09-01 13:00:00 33.2 12 Este 20 Este 0 1000 -0.5 46
2018-09-01 12:00:00 31 10 Este 19 Este 0 1000.6 0.2 53
2018-09-01 11:00:00 29.2 8 Este 12 Sudeste 0 1000.7 0.6 61
2018-09-01 10:00:00 26.2 3 Sudeste 13 Este 0 1000.5 0.8 71
2018-09-01 09:00:00 22.9 0 Calma 6 Nordeste 0 1000.4 0.8 77
2018-09-01 08:00:00 21.7 0 Calma 5 Este 0 1000.1 0.4 76
2018-09-01 07:00:00 22.5 3 Nordeste 7 Este 0 999.7 0 74
2018-09-01 06:00:00 22.6 3 Sudeste 7 Sur 0 999.6 0.1 70
2018-09-01 05:00:00 24 6 Sudeste 28 Sudoeste 0 999.7 0 69
2018-09-01 04:00:00 25.4 18 Sur 29 Sur 0 999.7 0.1 64
2018-09-01 03:00:00 26.4 19 Sur 31 Sur 0 999.5 -0.2 57
2018-09-01 02:00:00 26.6 13 Sur 24 Sur 0 999.7 0.3 53
2018-09-01 01:00:00 27.5 14 Sudoeste 24 Sudoeste 0 999.6 0.9 50
2018-09-01 00:00:00 27.9 11 Sur 21 Sur 0 999.7 1.7 50
2018-08-31 23:00:00 28.3 15 Sur 28 Sudoeste 0 999.4 1.8 49
2018-08-31 22:00:00 29.2 19 Sudoeste 27 Sudoeste 0 998.7 1.4 44
2018-08-31 21:00:00 31.3 21 Sur 31 Sur 0 998 0.3 40
2018-08-31 20:00:00 33.8 20 Sur 28 Sur 0 997.6 -0.5 38
2018-08-31 19:00:00 36.6 10 Sur 23 Sur 0 997.3 -1.6 36
2018-08-31 18:00:00 36.4 9 Sudeste 19 Sudeste 0 997.7 -1.8 35
2018-08-31 17:00:00 36.8 5 Sur 24 Sudeste 0 998.1 -1.9 36
2018-08-31 16:00:00 36.4 8 Sudeste 23 Sudeste 0 998.9 -1.7 37
2018-08-31 15:00:00 35.3 9 Este 23 Este 0 999.5 -1.7 43
2018-08-31 14:00:00 33.4 9 Sudeste 27 Sudeste 0 1000 -1.2 47
2018-08-31 13:00:00 31.7 8 Sudeste 19 Sur 0 1000.6 -0.8 52
2018-08-31 12:00:00 30.2 12 Sudeste 22 Este 0 1001.2 0 59
2018-08-31 11:00:00 28.5 9 Este 17 Este 0 1001.2 0.3 65
2018-08-31 10:00:00 25.9 5 Sudeste 14 Sudeste 0 1001.4 0.8 71
2018-08-31 09:00:00 23.2 0 Calma 5 Este 0 1001.2 0.7 75
2018-08-31 08:00:00 21.3 4 Sudeste 7 Sur 0 1000.9 0.3 75
2018-08-31 07:00:00 22 0 Calma 9 Sudeste 0 1000.6 -0.5 71
2018-08-31 06:00:00 22.9 3 Oeste 11 Sudoeste 0 1000.5 -0.7 68
2018-08-31 05:00:00 23.9 8 Sudoeste 10 Sudoeste 0 1000.6 -0.6 68
2018-08-31 04:00:00 24 0 Calma 13 Sur 0 1001.1 0.3 66
2018-08-31 03:00:00 25.3 10 Sur 30 Sur 0 1001.2 0.5 65
2018-08-31 02:00:00 25.9 23 Sur 33 Sur 0 1001.2 0.6 64
2018-08-31 01:00:00 26.5 16 Sudoeste 25 Sudoeste 0 1000.8 0.8 55
2018-08-31 00:00:00 27.2 12 Sudoeste 25 Sudoeste 0 1000.7 1.2 49
2018-08-30 23:00:00 28 13 Sudoeste 21 Sudoeste 0 1000.6 1.5 46
2018-08-30 22:00:00 29.2 13 Sudoeste 18 Sudoeste 0 1000 0.8 43
2018-08-30 21:00:00 30.9 11 Sur 18 Sur 0 999.5 0 41
2018-08-30 20:00:00 33.2 11 Sudeste 16 Sur 0 999.1 -0.7 37
2018-08-30 19:00:00 35.3 6 Sudoeste 19 Sur 0 999.2 -1.2 33
2018-08-30 18:00:00 35.3 7 Sur 26 Sur 0 999.5 -1.4 36
2018-08-30 17:00:00 35.4 8 Oeste 25 Sur 0 999.8 -1.8 37
2018-08-30 16:00:00 35 6 Este 15 Sudeste 0 1000.4 -1.7 39
2018-08-30 15:00:00 33.7 7 Este 22 Sudeste 0 1000.9 -1.8 43
2018-08-30 14:00:00 32.2 6 Sudeste 19 Sudeste 0 1001.6 -1.2 47
2018-08-30 13:00:00 30 5 Este 15 Sudeste 0 1002.1 -0.7 50
2018-08-30 12:00:00 27.7 3 Nordeste 13 Nordeste 0 1002.7 0.3 60
2018-08-30 11:00:00 25 3 Este 8 Este 0 1002.8 0.8 70
2018-08-30 10:00:00 22.6 3 Este 6 Sudeste 0 1002.8 1.1 79
2018-08-30 09:00:00 19.6 0 Calma 5 Sur 0 1002.4 1 86
2018-08-30 08:00:00 17.4 0 Calma 4 Sudoeste 0 1002 0.3 90
2018-08-30 07:00:00 18 2 Sudeste 6 Sudeste 0 1001.7 -0.2 88
2018-08-30 06:00:00 19.3 0 Calma 13 Sudoeste 0 1001.4 -0.8 87
2018-08-30 05:00:00 19.4 2 Sudoeste 10 Sudoeste 0 1001.7 0 79
2018-08-30 04:00:00 20.3 6 Oeste 9 Oeste 0 1001.9 0.1 77
2018-08-30 03:00:00 21.6 0 Calma 18 Sudoeste 0 1002.2 0.6 75
2018-08-30 02:00:00 21.9 14 Sudoeste 20 Sudoeste 0 1001.7 0.6 76
2018-08-30 01:00:00 22.7 10 Sudoeste 22 Oeste 0 1001.8 1.3 68
2018-08-30 00:00:00 24.3 17 Sudoeste 28 Sudoeste 0 1001.6 1.9 58
2018-08-29 23:00:00 25.2 19 Sudoeste 30 Oeste 0 1001.1 1.9 55
2018-08-29 22:00:00 27.2 17 Oeste 31 Oeste 0 1000.5 1.1 49
2018-08-29 21:00:00 29.8 14 Oeste 29 Sudoeste 0 999.7 0.2 36
2018-08-29 20:00:00 33 10 Oeste 20 Oeste 0 999.2 -0.6 30
2018-08-29 19:00:00 33.7 10 Oeste 19 Oeste 0 999.4 -1 31
2018-08-29 18:00:00 33.7 10 Oeste 22 Sudoeste 0 999.5 -1.7 33
2018-08-29 17:00:00 33.4 9 Noroeste 21 Noroeste 0 999.8 -1.9 36
2018-08-29 16:00:00 32.9 8 Oeste 24 Sudoeste 0 1000.4 -1.9 40
2018-08-29 15:00:00 31.4 6 Oeste 22 Sudoeste 0 1001.2 -1.4 41
2018-08-29 14:00:00 29.8 7 Oeste 19 Sudoeste 0 1001.7 -0.9 49
2018-08-29 13:00:00 27.3 7 Oeste 19 Oeste 0 1002.3 -0.3 63
2018-08-29 12:00:00 25.5 9 Oeste 17 Sudoeste 0 1002.6 0.2 71
2018-08-29 11:00:00 23.8 6 Sudoeste 16 Oeste 0 1002.6 0.5 79
2018-08-29 10:00:00 21.7 8 Oeste 19 Oeste 0 1002.6 0.8 91
2018-08-29 09:00:00 19.8 9 Oeste 22 Oeste 0 1002.4 0.6 98
2018-08-29 08:00:00 19.5 3 Oeste 13 Oeste 0 1002.1 0.4 97
2018-08-29 07:00:00 19.6 6 Oeste 13 Oeste 0 1001.8 0.2 93
2018-08-29 06:00:00 20.2 2 Oeste 7 Sudoeste 0 1001.8 0.2 86
2018-08-29 05:00:00 21 2 Noroeste 5 Noroeste 0 1001.7 0.6 81
2018-08-29 04:00:00 22.1 4 Noroeste 10 Noroeste 0 1001.6 0.7 77
2018-08-29 03:00:00 23.5 7 Noroeste 20 Sudoeste 0 1001.6 0.9 69
2018-08-29 02:00:00 24.4 14 Sudoeste 23 Sudoeste 0 1001.1 0.7 64
2018-08-29 01:00:00 24.8 17 Sudoeste 24 Sudoeste 0 1000.9 1.6 63
2018-08-29 00:00:00 26 17 Sudoeste 26 Sudoeste 0 1000.7 2.3 61
2018-08-28 23:00:00 26.3 17 Sudoeste 33 Sudoeste 0 1000.4 2.8 61
2018-08-28 22:00:00 28.1 25 Sudoeste 37 Sudoeste 0 999.3 1.8 56
2018-08-28 21:00:00 30.3 28 Sudoeste 42 Sudoeste 0 998.4 0.7 48
2018-08-28 20:00:00 33.7 19 Oeste 32 Oeste 0 997.6 -0.6 41
2018-08-28 19:00:00 35.1 19 Oeste 36 Oeste 0 997.5 -1.1 38
2018-08-28 18:00:00 36.6 13 Oeste 28 Sudoeste 0 997.7 -1.7 37
2018-08-28 17:00:00 36.4 12 Oeste 27 Sudoeste 0 998.2 -2 36
2018-08-28 16:00:00 36.1 14 Oeste 29 Oeste 0 998.6 -2.2 38
2018-08-28 15:00:00 35.5 6 Oeste 21 Oeste 0 999.4 -1.7 41
2018-08-28 14:00:00 33.3 5 Sudeste 12 Sur 0 1000.2 -0.9 49
2018-08-28 13:00:00 31 4 Este 14 Sudeste 0 1000.8 -0.5 55
2018-08-28 12:00:00 29.1 4 Este 11 Este 0 1001.1 0 64
2018-08-28 11:00:00 26.6 3 Nordeste 12 Este 0 1001.1 0.5 78
2018-08-28 10:00:00 25.3 3 Sudeste 8 Sudeste 0 1001.3 1.5 83
2018-08-28 09:00:00 23.1 3 Sudeste 6 Sudeste 0 1001.1 1.6 91
2018-08-28 08:00:00 21.9 3 Sudoeste 17 Oeste 0 1000.6 0.7 92
2018-08-28 07:00:00 22.5 10 Oeste 22 Oeste 0 999.8 -0.2 91
2018-08-28 06:00:00 22.8 13 Noroeste 22 Noroeste 0 999.5 -1 90
2018-08-28 05:00:00 23.1 5 Norte 13 Noroeste 0 999.9 -0.3 80
2018-08-28 04:00:00 23.8 0 Calma 15 Oeste 0 1000 0.2 73
2018-08-28 03:00:00 24.8 10 Noroeste 24 Noroeste 0 1000.5 0.7 71
2018-08-28 02:00:00 25.7 13 Noroeste 22 Noroeste 0 1000.2 1.6 60
2018-08-28 01:00:00 27 10 Sudoeste 25 Sudoeste 0 999.8 2.6 51
2018-08-28 00:00:00 28.3 13 Sur 40 Sur 0 999.8 4 48
2018-08-27 23:00:00 30.8 30 Sur 45 Sur 0 998.6 3.5 41
2018-08-27 22:00:00 31 19 Sur 31 Sur 0 997.2 1.4 39
2018-08-27 21:00:00 32.4 13 Sur 26 Sudeste 0 995.8 -1.9 37
2018-08-27 20:00:00 34.7 18 Sudeste 34 Sur 0 995.1 -0.9 35
2018-08-27 19:00:00 36.3 11 Sudeste 34 Sudoeste 0 995.8 -0.6 35
2018-08-27 18:00:00 35.9 26 Sudoeste 36 Sudoeste 0 997.7 1.2 35
2018-08-27 17:00:00 39.4 5 Este 17 Sur 0 996 -1.8 35
2018-08-27 16:00:00 36.9 10 Sudeste 31 Este 0 996.4 -1.5 37
2018-08-27 15:00:00 36.7 14 Este 22 Este 0 996.5 -1.5 39
2018-08-27 14:00:00 36.8 2 Sudeste 16 Este 0 997.8 -0.4 41
2018-08-27 13:00:00 34.9 4 Sudeste 19 Sudeste 0 997.9 0.1 46
2018-08-27 12:00:00 32.7 6 Sudeste 14 Sudeste 0 998 0.2 53
2018-08-27 11:00:00 30.4 2 Sudeste 13 Sudeste 0 998.2 0.9 56
2018-08-27 10:00:00 26.6 4 Sudeste 7 Sudeste 0 997.8 1.2 61
2018-08-27 09:00:00 23.7 0 Calma 9 Sudeste 0 997.8 1 66
2018-08-27 08:00:00 20.9 3 Sur 6 Sudeste 0 997.3 0.5 68
2018-08-27 07:00:00 20.8 0 Calma 8 Sur 0 996.6 -0.7 65
2018-08-27 06:00:00 21.3 5 Sur 8 Sur 0 996.8 -0.7 64
2018-08-27 05:00:00 21.5 6 Sudeste 8 Sudeste 0 996.8 -1.1 61
2018-08-27 04:00:00 22.4 6 Sudeste 11 Sudeste 0 997.3 -0.6 57
2018-08-27 03:00:00 23.8 8 Sur 11 Sur 0 997.5 -0.4 55
2018-08-27 02:00:00 24 4 Sur 8 Sudeste 0 997.9 0.4 53
2018-08-27 01:00:00 26.3 3 Sudoeste 12 Sudoeste 0 997.9 0.9 48
2018-08-27 00:00:00 28.7 9 Sudoeste 16 Sudoeste 0 997.9 1.7 45
2018-08-26 23:00:00 29.5 11 Sudoeste 17 Sudoeste 0 997.5 1.5 41
2018-08-26 22:00:00 30.8 12 Sudoeste 15 Sudoeste 0 997 1 39
2018-08-26 21:00:00 33.6 9 Oeste 21 Oeste 0 996.2 0.3 36
2018-08-26 20:00:00 36.7 12 Oeste 28 Oeste 0 996 -0.1 33
2018-08-26 19:00:00 38 10 Oeste 26 Oeste 0 996 -0.6 32
2018-08-26 18:00:00 38.4 8 Sudeste 26 Sudeste 0 995.9 -1.4 32
2018-08-26 17:00:00 38.3 10 Sudeste 24 Sudoeste 0 996.1 -1.8 31
2018-08-26 16:00:00 38.9 10 Sur 26 Oeste 0 996.6 -1.7 33
2018-08-26 15:00:00 37.5 4 Este 22 Sudoeste 0 997.3 -1.3 38
2018-08-26 14:00:00 36.3 6 Sudeste 15 Sudeste 0 997.9 -0.7 40
2018-08-26 13:00:00 34.5 3 Sudeste 14 Este 0 998.3 -0.1 43
2018-08-26 12:00:00 31.5 8 Este 17 Este 0 998.6 0.7 49
2018-08-26 11:00:00 28.6 4 Este 10 Sudeste 0 998.6 0.6 55
2018-08-26 10:00:00 25.7 3 Sur 7 Sur 0 998.4 1.1 62
2018-08-26 09:00:00 21.5 0 Calma 4 Oeste 0 997.9 0.7 69
2018-08-26 08:00:00 19.3 0 Calma 19 Sudoeste 0 998 0.8 72
2018-08-26 07:00:00 19.9 0 Calma 7 Sur 0 997.3 -0.1 70
2018-08-26 06:00:00 20.5 3 Sur 5 Sur 0 997.2 -0.5 69
2018-08-26 05:00:00 21 2 Sur 6 Sur 0 997.2 -0.3 67
2018-08-26 04:00:00 21.7 4 Sur 10 Sudeste 0 997.4 -0.2 64
2018-08-26 03:00:00 23.5 4 Sudeste 11 Sudoeste 0 997.7 0.3 59
2018-08-26 02:00:00 25.8 12 Sudoeste 19 Sudoeste 0 997.5 0.4 53
2018-08-26 01:00:00 26.1 0 Calma 23 Sudoeste 0 997.6 1.2 55
2018-08-26 00:00:00 27.6 17 Sudoeste 22 Oeste 0 997.4 1.8 50
2018-08-25 23:00:00 28.9 18 Sudoeste 24 Sudoeste 0 997.1 1.7 46
2018-08-25 22:00:00 31 12 Oeste 27 Oeste 0 996.4 1.1 40
2018-08-25 21:00:00 33.2 7 Oeste 19 Oeste 0 995.6 0.3 35
2018-08-25 20:00:00 36.3 10 Oeste 31 Sudoeste 0 995.4 -0.4 33
2018-08-25 19:00:00 37.2 16 Oeste 31 Sudoeste 0 995.3 -1.2 33
2018-08-25 18:00:00 37.9 17 Oeste 32 Sudoeste 0 995.3 -2 33
2018-08-25 17:00:00 38.2 12 Oeste 34 Oeste 0 995.8 -2 30
2018-08-25 16:00:00 37.7 14 Oeste 30 Oeste 0 996.5 -2.1 35
2018-08-25 15:00:00 36.7 12 Oeste 26 Oeste 0 997.3 -1.9 38
2018-08-25 14:00:00 35.5 9 Oeste 22 Oeste 0 997.8 -1.7 38
2018-08-25 13:00:00 34.3 10 Sudoeste 18 Oeste 0 998.6 -0.7 41
2018-08-25 12:00:00 31.6 4 Nordeste 10 Nordeste 0 999.2 0.1 45
2018-08-25 11:00:00 29.7 0 Calma 7 Nordeste 0 999.5 0.6 49
2018-08-25 10:00:00 25.9 3 Sudeste 6 Este 0 999.3 0.6 55
2018-08-25 09:00:00 23 0 Calma 3 Sur 0 999.1 0.5 57
2018-08-25 08:00:00 21.4 2 Sudeste 6 Sudeste 0 998.9 0.2 59
2018-08-25 07:00:00 21.7 4 Sur 5 Sur 0 998.7 -0.3 57
2018-08-25 06:00:00 22.5 3 Sudoeste 4 Sur 0 998.6 -0.5 55
2018-08-25 05:00:00 22.8 0 Calma 5 Sudeste 0 998.7 -0.8 54
2018-08-25 04:00:00 23.9 0 Calma 13 Sudoeste 0 999 -0.6 53
2018-08-25 03:00:00 24.9 13 Sur 17 Sur 0 999.1 -0.3 51
2018-08-25 02:00:00 26.1 11 Sur 21 Sudoeste 0 999.5 0.5 48
2018-08-25 01:00:00 27.7 15 Sudoeste 25 Sudoeste 0 999.6 0.9 46
2018-08-25 00:00:00 29.4 19 Sudoeste 32 Oeste 0 999.4 1.2 44